createdAt,value
2022-10-20T00:03:10.141Z,12.00
2022-10-20T00:07:11.522Z,12.20
2022-10-20T00:11:15.533Z,12.20
2022-10-20T00:15:16.859Z,12.10
2022-10-20T00:19:17.954Z,12.20
2022-10-20T00:23:19.643Z,12.20
2022-10-20T00:27:20.817Z,12.10
2022-10-20T00:31:23.827Z,12.20
2022-10-20T00:35:25.004Z,12.20
2022-10-20T00:39:26.089Z,12.20
2022-10-20T00:43:49.182Z,12.00
2022-10-20T00:47:54.068Z,12.00
2022-10-20T00:51:55.242Z,12.00
2022-10-20T00:55:58.942Z,11.90
2022-10-20T01:00:00.186Z,11.70
2022-10-20T01:04:02.112Z,11.70
2022-10-20T01:08:03.680Z,11.60
2022-10-20T01:12:27.872Z,11.70
2022-10-20T01:16:53.687Z,11.60
2022-10-20T01:21:18.395Z,11.50
2022-10-20T01:25:39.977Z,11.40
2022-10-20T01:29:50.865Z,11.60
2022-10-20T01:34:04.406Z,11.70
2022-10-20T01:38:15.446Z,11.70
2022-10-20T01:42:20.433Z,11.70
2022-10-20T01:46:24.734Z,11.60
2022-10-20T01:50:26.739Z,11.50
2022-10-20T01:54:29.613Z,11.30
2022-10-20T01:58:40.086Z,11.30
2022-10-20T02:03:03.454Z,11.30
2022-10-20T02:07:08.449Z,11.40
2022-10-20T02:11:13.450Z,11.50
2022-10-20T02:15:18.372Z,11.60
2022-10-20T02:19:22.563Z,11.60
2022-10-20T02:23:24.123Z,11.60
2022-10-20T02:27:36.924Z,11.60
2022-10-20T02:31:38.310Z,11.60
2022-10-20T02:35:43.019Z,11.40
2022-10-20T02:39:44.120Z,11.50
2022-10-20T02:43:45.323Z,11.40
2022-10-20T02:47:46.636Z,11.20
2022-10-20T02:51:47.817Z,11.20
2022-10-20T02:55:48.915Z,11.30
2022-10-20T02:59:50.097Z,11.20
2022-10-20T03:03:51.166Z,11.10
2022-10-20T03:07:53.070Z,11.10
2022-10-20T03:11:54.248Z,11.00
2022-10-20T03:15:55.543Z,11.00
2022-10-20T03:19:56.750Z,10.80
2022-10-20T03:23:57.951Z,10.90
2022-10-20T03:27:59.236Z,11.00
2022-10-20T03:32:02.314Z,11.00
2022-10-20T03:36:04.439Z,11.00
2022-10-20T03:40:06.593Z,11.00
2022-10-20T03:44:09.775Z,11.00
2022-10-20T03:48:11.461Z,11.10
2022-10-20T03:52:12.540Z,11.40
2022-10-20T03:56:17.532Z,11.40
2022-10-20T04:00:18.743Z,11.40
2022-10-20T04:04:19.967Z,11.40
2022-10-20T04:08:21.064Z,11.30
2022-10-20T04:12:23.276Z,11.20
2022-10-20T04:16:24.996Z,11.20
2022-10-20T04:20:26.093Z,11.00
2022-10-20T04:24:27.188Z,10.90
2022-10-20T04:28:28.770Z,10.80
2022-10-20T04:32:29.871Z,10.80
2022-10-20T04:36:31.057Z,10.90
2022-10-20T04:40:32.140Z,10.80
2022-10-20T04:44:33.326Z,10.80
2022-10-20T04:48:34.640Z,10.80
2022-10-20T04:52:35.821Z,11.00
2022-10-20T04:56:37.015Z,11.10
2022-10-20T05:00:38.206Z,11.10
2022-10-20T05:04:39.390Z,11.10
2022-10-20T05:08:42.031Z,10.90
2022-10-20T05:12:43.206Z,10.90
2022-10-20T05:16:44.521Z,10.80
2022-10-20T05:21:07.221Z,10.80
2022-10-20T05:24:48.698Z,10.80
2022-10-20T05:28:50.877Z,10.80
2022-10-20T05:32:52.058Z,10.80
2022-10-20T05:36:53.753Z,10.70
2022-10-20T05:40:54.958Z,10.80
2022-10-20T05:44:56.150Z,10.90
2022-10-20T05:48:59.948Z,10.80
2022-10-20T05:53:01.134Z,10.80
2022-10-20T05:57:02.476Z,10.90
2022-10-20T06:01:07.861Z,10.90
2022-10-20T06:05:09.048Z,10.80
2022-10-20T06:09:11.341Z,10.90
2022-10-20T06:13:13.035Z,10.80
2022-10-20T06:17:14.219Z,11.10
2022-10-20T06:21:21.012Z,11.10
2022-10-20T06:25:22.204Z,10.90
2022-10-20T06:29:23.479Z,10.90
2022-10-20T06:33:24.976Z,11.10
2022-10-20T06:37:26.188Z,11.10
2022-10-20T06:41:27.978Z,11.20
2022-10-20T06:45:29.067Z,11.20
2022-10-20T06:49:30.438Z,11.20
2022-10-20T06:53:34.141Z,11.10
2022-10-20T06:57:35.321Z,11.30
2022-10-20T07:01:38.299Z,11.30
2022-10-20T07:05:39.598Z,11.30
2022-10-20T07:09:40.797Z,11.30
2022-10-20T07:13:42.501Z,11.40
2022-10-20T07:17:43.613Z,11.50
2022-10-20T07:21:45.898Z,11.60
2022-10-20T07:25:47.234Z,11.70
2022-10-20T07:29:48.400Z,11.80
2022-10-20T07:34:07.082Z,12.00
2022-10-20T07:37:53.216Z,12.20
2022-10-20T07:41:54.398Z,12.20
2022-10-20T07:45:55.893Z,12.20
2022-10-20T07:49:57.063Z,12.40
2022-10-20T07:54:06.765Z,12.40
2022-10-20T07:58:07.839Z,12.30
2022-10-20T08:02:11.162Z,12.10
2022-10-20T08:06:12.415Z,12.40
2022-10-20T08:10:13.514Z,12.50
2022-10-20T08:14:14.718Z,12.50
2022-10-20T08:18:20.342Z,12.50
2022-10-20T08:22:21.668Z,12.60
2022-10-20T08:26:24.950Z,12.60
2022-10-20T08:30:26.111Z,12.50
2022-10-20T08:34:27.329Z,12.40
2022-10-20T08:38:28.458Z,12.60
2022-10-20T08:42:35.941Z,12.70
2022-10-20T08:46:39.427Z,12.60
2022-10-20T08:50:46.712Z,12.40
2022-10-20T08:54:51.695Z,12.60
2022-10-20T08:58:52.916Z,12.90
2022-10-20T09:02:54.953Z,12.90
2022-10-20T09:06:59.571Z,13.00
2022-10-20T09:11:02.441Z,12.80
2022-10-20T09:15:04.086Z,13.20
2022-10-20T09:19:08.338Z,13.40
2022-10-20T09:23:38.987Z,13.20
2022-10-20T09:27:22.641Z,13.20
2022-10-20T09:31:33.138Z,13.10
2022-10-20T09:35:35.850Z,13.40
2022-10-20T09:39:56.113Z,13.60
2022-10-20T09:44:03.926Z,13.60
2022-10-20T09:48:17.591Z,13.70
2022-10-20T09:52:30.530Z,13.70
2022-10-20T09:56:34.451Z,13.60
2022-10-20T10:00:39.812Z,13.50
2022-10-20T10:04:44.548Z,13.70
2022-10-20T10:08:46.754Z,14.00
2022-10-20T10:12:56.885Z,14.10
2022-10-20T10:16:59.373Z,14.40
2022-10-20T10:21:04.101Z,14.30
2022-10-20T10:25:07.573Z,14.50
2022-10-20T10:29:21.140Z,14.70
2022-10-20T10:33:27.386Z,14.50
2022-10-20T10:37:33.859Z,14.50
2022-10-20T10:41:49.233Z,14.50
2022-10-20T10:45:53.593Z,14.50
2022-10-20T10:50:18.868Z,14.50
2022-10-20T10:54:30.033Z,14.50
2022-10-20T10:58:46.898Z,14.40
2022-10-20T11:02:51.824Z,14.30
2022-10-20T11:06:59.480Z,14.20
2022-10-20T11:11:10.780Z,14.20
2022-10-20T11:15:19.061Z,14.20
2022-10-20T11:19:39.303Z,14.10
2022-10-20T11:23:56.444Z,14.20
2022-10-20T11:27:58.943Z,14.30
2022-10-20T11:32:26.974Z,15.00
2022-10-20T11:36:48.656Z,14.90
2022-10-20T11:41:05.920Z,15.10
2022-10-20T11:45:29.373Z,15.00
2022-10-20T11:49:32.646Z,15.00
2022-10-20T11:54:09.925Z,15.10
2022-10-20T11:58:17.491Z,15.10
2022-10-20T12:02:37.530Z,15.00
2022-10-20T12:06:54.543Z,14.90
2022-10-20T12:11:08.289Z,15.10
2022-10-20T12:15:21.912Z,15.10
2022-10-20T12:19:26.889Z,15.00
2022-10-20T12:23:48.815Z,15.00
2022-10-20T12:28:10.377Z,14.80
2022-10-20T12:32:30.737Z,15.10
2022-10-20T12:36:37.695Z,15.10
2022-10-20T12:40:49.076Z,15.00
2022-10-20T12:44:51.635Z,15.00
2022-10-20T12:48:56.742Z,15.10
2022-10-20T12:53:10.925Z,14.90
2022-10-20T12:57:28.225Z,14.70
2022-10-20T13:01:29.394Z,14.60
2022-10-20T13:05:43.723Z,14.60
2022-10-20T13:09:57.970Z,14.70
2022-10-20T13:14:13.798Z,14.70
2022-10-20T13:18:27.974Z,15.00
2022-10-20T13:22:47.996Z,15.10
2022-10-20T13:26:54.334Z,15.20
2022-10-20T13:30:59.311Z,15.20
2022-10-20T13:35:13.454Z,14.90
2022-10-20T13:39:21.354Z,15.10
2022-10-20T13:43:56.800Z,15.10
2022-10-20T13:48:15.409Z,15.00
2022-10-20T13:52:17.093Z,14.70
2022-10-20T13:56:37.220Z,14.50
2022-10-20T14:00:38.449Z,14.40
2022-10-20T14:04:39.622Z,14.60
2022-10-20T14:08:43.865Z,14.50
2022-10-20T14:12:45.187Z,14.50
2022-10-20T14:16:50.389Z,14.40
2022-10-20T14:21:02.121Z,14.50
2022-10-20T14:25:07.114Z,14.50
2022-10-20T14:29:10.895Z,14.60
2022-10-20T14:33:15.275Z,14.80
2022-10-20T14:37:20.179Z,14.80
2022-10-20T14:41:35.774Z,14.80
2022-10-20T14:45:36.928Z,14.80
2022-10-20T14:49:41.607Z,14.90
2022-10-20T14:53:43.287Z,15.00
2022-10-20T14:57:45.985Z,15.00
2022-10-20T15:02:12.287Z,14.60
2022-10-20T15:06:17.857Z,14.40
2022-10-20T15:10:25.359Z,14.50
2022-10-20T15:14:26.746Z,14.70
2022-10-20T15:18:28.842Z,14.80
2022-10-20T15:22:30.026Z,14.90
2022-10-20T15:26:31.607Z,14.70
2022-10-20T15:30:33.665Z,14.70
2022-10-20T15:34:35.158Z,14.70
2022-10-20T15:38:36.345Z,14.80
2022-10-20T15:42:37.811Z,14.70
2022-10-20T15:46:40.942Z,14.60
2022-10-20T15:50:42.001Z,14.70
2022-10-20T15:54:43.295Z,14.80
2022-10-20T15:58:44.878Z,14.70
2022-10-20T16:02:46.655Z,14.60
2022-10-20T16:06:48.052Z,14.60
2022-10-20T16:10:49.147Z,14.50
2022-10-20T16:14:50.230Z,14.60
2022-10-20T16:18:51.327Z,14.50
2022-10-20T16:22:53.401Z,14.50
2022-10-20T16:26:54.523Z,14.60
2022-10-20T16:31:07.139Z,14.70
2022-10-20T16:35:09.282Z,14.60
2022-10-20T16:39:11.758Z,14.60
2022-10-20T16:43:12.838Z,14.50
2022-10-20T16:47:14.040Z,14.60
2022-10-20T16:51:16.328Z,14.60
2022-10-20T16:55:17.550Z,14.60
2022-10-20T16:59:18.666Z,14.70
2022-10-20T17:03:20.441Z,14.60
2022-10-20T17:07:21.945Z,14.60
2022-10-20T17:11:26.282Z,14.70
2022-10-20T17:15:27.951Z,14.50
2022-10-20T17:19:29.210Z,14.70
2022-10-20T17:23:32.606Z,14.80
2022-10-20T17:27:33.790Z,14.60
2022-10-20T17:31:35.820Z,14.70
2022-10-20T17:35:37.251Z,14.90
2022-10-20T17:39:38.522Z,15.00
2022-10-20T17:43:40.550Z,15.00
2022-10-20T17:47:41.905Z,14.90
2022-10-20T17:51:43.530Z,15.00
2022-10-20T17:55:44.783Z,15.00
2022-10-20T17:59:52.930Z,15.10
2022-10-20T18:03:55.678Z,15.10
2022-10-20T18:07:56.867Z,14.90
2022-10-20T18:11:58.263Z,14.50
2022-10-20T18:15:59.433Z,14.10
2022-10-20T18:20:00.624Z,13.90
2022-10-20T18:24:04.842Z,14.00
2022-10-20T18:28:08.053Z,14.00
2022-10-20T18:32:09.257Z,13.90
2022-10-20T18:36:13.361Z,13.70
2022-10-20T18:40:14.676Z,13.80
2022-10-20T18:44:18.014Z,13.80
2022-10-20T18:48:19.234Z,13.90
2022-10-20T18:52:20.329Z,14.30
2022-10-20T18:56:23.827Z,14.50
2022-10-20T19:00:25.029Z,14.70
2022-10-20T19:04:26.507Z,14.80
2022-10-20T19:08:28.672Z,15.00
2022-10-20T19:12:29.952Z,15.10
2022-10-20T19:16:33.727Z,15.10
2022-10-20T19:20:34.813Z,15.20
2022-10-20T19:24:37.913Z,15.00
2022-10-20T19:28:45.758Z,15.00
2022-10-20T19:32:48.866Z,14.90
2022-10-20T19:36:50.259Z,14.90
2022-10-20T19:40:53.260Z,14.80
2022-10-20T19:44:55.129Z,14.80
2022-10-20T19:48:56.862Z,14.80
2022-10-20T19:52:58.874Z,14.80
2022-10-20T19:57:00.158Z,14.70
2022-10-20T20:01:01.770Z,14.70
2022-10-20T20:05:05.084Z,15.20
2022-10-20T20:09:08.561Z,15.20
2022-10-20T20:13:09.801Z,15.10
2022-10-20T20:17:11.216Z,14.80
2022-10-20T20:21:13.854Z,14.80
2022-10-20T20:25:15.374Z,14.70
2022-10-20T20:29:16.526Z,14.60
2022-10-20T20:33:17.632Z,14.50
2022-10-20T20:37:20.414Z,14.80
2022-10-20T20:41:23.515Z,14.70
2022-10-20T20:45:24.623Z,14.60
2022-10-20T20:49:25.694Z,14.50
2022-10-20T20:53:26.905Z,14.60
2022-10-20T20:57:28.654Z,14.50
2022-10-20T21:01:31.246Z,14.40
2022-10-20T21:05:36.287Z,14.40
2022-10-20T21:09:37.525Z,14.30
2022-10-20T21:13:40.100Z,14.20
2022-10-20T21:17:41.308Z,14.10
2022-10-20T21:21:53.886Z,14.20
2022-10-20T21:25:55.102Z,14.40
2022-10-20T21:29:56.359Z,14.60
2022-10-20T21:34:00.285Z,14.70
2022-10-20T21:38:01.511Z,14.70
2022-10-20T21:42:02.729Z,14.70
2022-10-20T21:46:11.035Z,14.70
2022-10-20T21:50:12.612Z,14.60
2022-10-20T21:54:16.574Z,14.50
2022-10-20T21:58:17.782Z,14.60
2022-10-20T22:02:18.959Z,14.70
2022-10-20T22:06:23.273Z,14.80
2022-10-20T22:10:24.457Z,14.90
2022-10-20T22:14:25.647Z,14.90
2022-10-20T22:18:27.164Z,15.10
2022-10-20T22:22:30.241Z,15.20
2022-10-20T22:26:31.645Z,15.20
2022-10-20T22:30:34.038Z,15.20
2022-10-20T22:34:35.117Z,15.30
2022-10-20T22:38:36.279Z,15.20
2022-10-20T22:42:38.098Z,15.20
2022-10-20T22:46:39.496Z,15.10
2022-10-20T22:50:40.991Z,15.10
2022-10-20T22:54:42.186Z,15.10
2022-10-20T22:58:43.872Z,15.20
2022-10-20T23:02:45.366Z,15.20
2022-10-20T23:06:46.548Z,15.40
2022-10-20T23:10:51.537Z,15.40
2022-10-20T23:14:52.731Z,15.40
2022-10-20T23:18:53.913Z,15.40
2022-10-20T23:22:55.105Z,15.40
2022-10-20T23:26:57.184Z,15.50
2022-10-20T23:31:11.001Z,15.40
2022-10-20T23:35:12.303Z,15.30
2022-10-20T23:39:13.749Z,15.40
2022-10-20T23:43:14.847Z,15.20
2022-10-20T23:47:16.028Z,15.30
2022-10-20T23:51:17.257Z,15.40
2022-10-20T23:55:18.761Z,15.50
2022-10-20T23:59:19.961Z,15.60
